sensor_id;sensor_type;location;lat;lon;timestamp;temperature;humidity
790;DHT22;378;48.844;9.156;2023-08-01T00:02:00;17.30;99.90
790;DHT22;378;48.844;9.156;2023-08-01T00:04:29;17.30;99.90
790;DHT22;378;48.844;9.156;2023-08-01T00:06:56;17.40;99.90
790;DHT22;378;48.844;9.156;2023-08-01T00:09:22;17.40;99.90
790;DHT22;378;48.844;9.156;2023-08-01T00:11:49;17.40;99.90
790;DHT22;378;48.844;9.156;2023-08-01T00:14:16;17.40;99.90
790;DHT22;378;48.844;9.156;2023-08-01T00:16:45;17.40;99.90
790;DHT22;378;48.844;9.156;2023-08-01T00:19:11;17.40;99.90
790;DHT22;378;48.844;9.156;2023-08-01T00:21:40;17.40;99.90
790;DHT22;378;48.844;9.156;2023-08-01T00:24:07;17.40;99.90
790;DHT22;378;48.844;9.156;2023-08-01T00:26:33;17.50;99.90
790;DHT22;378;48.844;9.156;2023-08-01T00:29:00;17.50;99.90
790;DHT22;378;48.844;9.156;2023-08-01T00:31:27;17.50;99.90
790;DHT22;378;48.844;9.156;2023-08-01T00:33:54;17.40;99.90
790;DHT22;378;48.844;9.156;2023-08-01T00:36:21;17.40;99.90
790;DHT22;378;48.844;9.156;2023-08-01T00:38:49;17.40;99.90
790;DHT22;378;48.844;9.156;2023-08-01T00:41:16;17.40;99.90
790;DHT22;378;48.844;9.156;2023-08-01T00:43:42;17.40;99.90
790;DHT22;378;48.844;9.156;2023-08-01T00:46:10;17.40;99.90
790;DHT22;378;48.844;9.156;2023-08-01T00:48:36;17.30;99.90
790;DHT22;378;48.844;9.156;2023-08-01T00:51:05;17.30;99.90
790;DHT22;378;48.844;9.156;2023-08-01T00:53:32;17.30;99.90
790;DHT22;378;48.844;9.156;2023-08-01T00:56:00;17.30;99.90
790;DHT22;378;48.844;9.156;2023-08-01T00:58:27;17.30;99.90
790;DHT22;378;48.844;9.156;2023-08-01T01:00:54;17.30;99.90
790;DHT22;378;48.844;9.156;2023-08-01T01:03:22;17.30;99.90
790;DHT22;378;48.844;9.156;2023-08-01T01:05:54;17.20;99.90
790;DHT22;378;48.844;9.156;2023-08-01T01:08:23;17.20;99.90
790;DHT22;378;48.844;9.156;2023-08-01T01:10:49;17.20;99.90
790;DHT22;378;48.844;9.156;2023-08-01T01:13:18;17.20;99.90
790;DHT22;378;48.844;9.156;2023-08-01T01:15:44;17.20;99.90
790;DHT22;378;48.844;9.156;2023-08-01T01:18:11;17.10;99.90
790;DHT22;378;48.844;9.156;2023-08-01T01:20:39;17.10;99.90
790;DHT22;378;48.844;9.156;2023-08-01T01:23:08;17.10;99.90
790;DHT22;378;48.844;9.156;2023-08-01T01:25:36;17.00;99.90
790;DHT22;378;48.844;9.156;2023-08-01T01:28:05;17.00;99.90
790;DHT22;378;48.844;9.156;2023-08-01T01:30:32;17.00;99.90
790;DHT22;378;48.844;9.156;2023-08-01T01:33:00;17.00;99.90
790;DHT22;378;48.844;9.156;2023-08-01T01:35:27;17.00;99.90
790;DHT22;378;48.844;9.156;2023-08-01T01:37:55;16.90;99.90
790;DHT22;378;48.844;9.156;2023-08-01T01:40:24;17.00;99.90
790;DHT22;378;48.844;9.156;2023-08-01T01:42:50;17.00;99.90
790;DHT22;378;48.844;9.156;2023-08-01T01:45:17;16.90;99.90
790;DHT22;378;48.844;9.156;2023-08-01T01:47:44;16.80;99.90
790;DHT22;378;48.844;9.156;2023-08-01T01:50:11;16.80;99.90
790;DHT22;378;48.844;9.156;2023-08-01T01:52:38;16.90;99.90
790;DHT22;378;48.844;9.156;2023-08-01T01:55:07;16.90;99.90
790;DHT22;378;48.844;9.156;2023-08-01T01:57:33;16.90;99.90
790;DHT22;378;48.844;9.156;2023-08-01T02:00:01;16.80;99.90
790;DHT22;378;48.844;9.156;2023-08-01T02:02:28;16.80;99.90
790;DHT22;378;48.844;9.156;2023-08-01T02:04:55;16.80;99.90
790;DHT22;378;48.844;9.156;2023-08-01T02:07:22;16.80;99.90
790;DHT22;378;48.844;9.156;2023-08-01T02:09:49;16.80;99.90
790;DHT22;378;48.844;9.156;2023-08-01T02:12:17;16.80;99.90
790;DHT22;378;48.844;9.156;2023-08-01T02:14:43;16.70;99.90
790;DHT22;378;48.844;9.156;2023-08-01T02:17:10;16.80;99.90
790;DHT22;378;48.844;9.156;2023-08-01T02:19:37;16.90;99.90
790;DHT22;378;48.844;9.156;2023-08-01T02:22:04;16.90;99.90
790;DHT22;378;48.844;9.156;2023-08-01T02:24:31;16.90;99.90
790;DHT22;378;48.844;9.156;2023-08-01T02:26:58;16.90;99.90
790;DHT22;378;48.844;9.156;2023-08-01T02:29:26;16.90;99.90
790;DHT22;378;48.844;9.156;2023-08-01T02:31:53;16.90;99.90
790;DHT22;378;48.844;9.156;2023-08-01T02:34:20;16.90;99.90
790;DHT22;378;48.844;9.156;2023-08-01T02:36:47;16.90;99.90
790;DHT22;378;48.844;9.156;2023-08-01T02:39:14;16.90;99.90
790;DHT22;378;48.844;9.156;2023-08-01T02:41:43;16.90;99.90
790;DHT22;378;48.844;9.156;2023-08-01T02:44:10;16.90;99.90
790;DHT22;378;48.844;9.156;2023-08-01T02:46:39;16.90;99.90
790;DHT22;378;48.844;9.156;2023-08-01T02:49:06;16.90;99.90
790;DHT22;378;48.844;9.156;2023-08-01T02:51:33;16.90;99.90
790;DHT22;378;48.844;9.156;2023-08-01T02:54:00;16.90;99.90
790;DHT22;378;48.844;9.156;2023-08-01T02:56:26;16.90;99.90
790;DHT22;378;48.844;9.156;2023-08-01T02:58:53;16.90;99.90
790;DHT22;378;48.844;9.156;2023-08-01T03:01:20;16.90;99.90
790;DHT22;378;48.844;9.156;2023-08-01T03:03:49;16.90;99.90
790;DHT22;378;48.844;9.156;2023-08-01T03:06:15;16.90;99.90
790;DHT22;378;48.844;9.156;2023-08-01T03:08:43;16.90;99.90
790;DHT22;378;48.844;9.156;2023-08-01T03:11:12;16.90;99.90
790;DHT22;378;48.844;9.156;2023-08-01T03:13:38;17.00;99.90
790;DHT22;378;48.844;9.156;2023-08-01T03:16:05;17.00;99.90
790;DHT22;378;48.844;9.156;2023-08-01T03:18:32;17.00;99.90
790;DHT22;378;48.844;9.156;2023-08-01T03:21:00;17.00;99.90
790;DHT22;378;48.844;9.156;2023-08-01T03:23:29;17.00;99.90
790;DHT22;378;48.844;9.156;2023-08-01T03:25:56;17.00;99.90
790;DHT22;378;48.844;9.156;2023-08-01T03:28:23;17.00;99.90
790;DHT22;378;48.844;9.156;2023-08-01T03:30:50;17.00;99.90
790;DHT22;378;48.844;9.156;2023-08-01T03:33:18;17.00;99.90
790;DHT22;378;48.844;9.156;2023-08-01T03:35:46;16.90;99.90
790;DHT22;378;48.844;9.156;2023-08-01T03:38:14;16.90;99.90
790;DHT22;378;48.844;9.156;2023-08-01T03:40:40;16.90;99.90
790;DHT22;378;48.844;9.156;2023-08-01T03:43:07;17.00;99.90
790;DHT22;378;48.844;9.156;2023-08-01T03:45:35;17.00;99.90
790;DHT22;378;48.844;9.156;2023-08-01T03:48:02;17.00;99.90
790;DHT22;378;48.844;9.156;2023-08-01T03:50:29;17.00;99.90
790;DHT22;378;48.844;9.156;2023-08-01T03:52:55;17.00;99.90
790;DHT22;378;48.844;9.156;2023-08-01T03:55:23;16.90;99.90
790;DHT22;378;48.844;9.156;2023-08-01T03:57:50;16.90;99.90
790;DHT22;378;48.844;9.156;2023-08-01T04:00:17;16.60;99.90
790;DHT22;378;48.844;9.156;2023-08-01T04:02:44;16.60;99.90
790;DHT22;378;48.844;9.156;2023-08-01T04:05:11;16.50;99.90
790;DHT22;378;48.844;9.156;2023-08-01T04:07:38;16.50;99.90
790;DHT22;378;48.844;9.156;2023-08-01T04:10:06;16.50;99.90
790;DHT22;378;48.844;9.156;2023-08-01T04:12:34;16.50;99.90
790;DHT22;378;48.844;9.156;2023-08-01T04:15:01;16.50;99.90
790;DHT22;378;48.844;9.156;2023-08-01T04:17:28;16.50;99.90
790;DHT22;378;48.844;9.156;2023-08-01T04:19:55;16.50;99.90
790;DHT22;378;48.844;9.156;2023-08-01T04:22:22;16.50;99.90
790;DHT22;378;48.844;9.156;2023-08-01T04:24:48;16.50;99.90
790;DHT22;378;48.844;9.156;2023-08-01T04:27:15;16.50;99.90
790;DHT22;378;48.844;9.156;2023-08-01T04:29:44;16.50;99.90
790;DHT22;378;48.844;9.156;2023-08-01T04:32:10;16.50;99.90
790;DHT22;378;48.844;9.156;2023-08-01T04:34:39;16.50;99.90
790;DHT22;378;48.844;9.156;2023-08-01T04:37:06;16.50;99.90
790;DHT22;378;48.844;9.156;2023-08-01T04:39:33;16.60;99.90
790;DHT22;378;48.844;9.156;2023-08-01T04:42:00;16.60;99.90
790;DHT22;378;48.844;9.156;2023-08-01T04:44:27;16.60;99.90
790;DHT22;378;48.844;9.156;2023-08-01T04:46:56;16.60;99.90
790;DHT22;378;48.844;9.156;2023-08-01T04:49:23;16.70;99.90
790;DHT22;378;48.844;9.156;2023-08-01T04:51:51;16.80;99.90
790;DHT22;378;48.844;9.156;2023-08-01T04:54:18;16.90;99.90
790;DHT22;378;48.844;9.156;2023-08-01T04:56:44;16.90;99.90
790;DHT22;378;48.844;9.156;2023-08-01T04:59:11;17.00;99.90
790;DHT22;378;48.844;9.156;2023-08-01T05:01:38;17.00;99.90
790;DHT22;378;48.844;9.156;2023-08-01T05:04:06;17.00;99.90
790;DHT22;378;48.844;9.156;2023-08-01T05:06:33;17.10;99.90
790;DHT22;378;48.844;9.156;2023-08-01T05:09:00;17.20;99.90
790;DHT22;378;48.844;9.156;2023-08-01T05:11:27;17.30;99.90
790;DHT22;378;48.844;9.156;2023-08-01T05:13:54;17.30;99.90
790;DHT22;378;48.844;9.156;2023-08-01T05:16:21;17.30;99.90
790;DHT22;378;48.844;9.156;2023-08-01T05:18:47;17.30;99.90
790;DHT22;378;48.844;9.156;2023-08-01T05:21:16;17.30;99.90
790;DHT22;378;48.844;9.156;2023-08-01T05:23:42;17.30;99.90
790;DHT22;378;48.844;9.156;2023-08-01T05:26:09;17.40;99.90
790;DHT22;378;48.844;9.156;2023-08-01T05:28:36;17.50;99.90
790;DHT22;378;48.844;9.156;2023-08-01T05:31:03;17.50;99.90
790;DHT22;378;48.844;9.156;2023-08-01T05:33:30;17.60;99.90
790;DHT22;378;48.844;9.156;2023-08-01T05:35:57;17.60;99.90
790;DHT22;378;48.844;9.156;2023-08-01T05:38:25;17.60;99.90
790;DHT22;378;48.844;9.156;2023-08-01T05:40:52;17.60;99.90
790;DHT22;378;48.844;9.156;2023-08-01T05:43:19;17.60;99.90
790;DHT22;378;48.844;9.156;2023-08-01T05:45:45;17.70;99.90
790;DHT22;378;48.844;9.156;2023-08-01T05:48:12;17.60;99.90
790;DHT22;378;48.844;9.156;2023-08-01T05:50:40;17.60;99.90
790;DHT22;378;48.844;9.156;2023-08-01T05:53:06;17.60;99.90
790;DHT22;378;48.844;9.156;2023-08-01T05:55:35;17.60;99.90
790;DHT22;378;48.844;9.156;2023-08-01T05:58:01;17.60;99.90
790;DHT22;378;48.844;9.156;2023-08-01T06:00:28;17.70;99.90
790;DHT22;378;48.844;9.156;2023-08-01T06:02:55;17.70;99.90
790;DHT22;378;48.844;9.156;2023-08-01T06:05:22;17.70;99.90
790;DHT22;378;48.844;9.156;2023-08-01T06:07:49;17.70;99.90
790;DHT22;378;48.844;9.156;2023-08-01T06:10:16;17.70;99.90
790;DHT22;378;48.844;9.156;2023-08-01T06:12:44;17.70;99.90
790;DHT22;378;48.844;9.156;2023-08-01T06:15:12;17.80;99.90
790;DHT22;378;48.844;9.156;2023-08-01T06:17:42;17.80;99.90
790;DHT22;378;48.844;9.156;2023-08-01T06:23:07;17.70;99.90
790;DHT22;378;48.844;9.156;2023-08-01T06:45:17;16.60;99.90
790;DHT22;378;48.844;9.156;2023-08-01T06:47:44;16.40;99.90
790;DHT22;378;48.844;9.156;2023-08-01T06:50:11;16.30;99.90
790;DHT22;378;48.844;9.156;2023-08-01T06:52:38;16.30;99.90
790;DHT22;378;48.844;9.156;2023-08-01T06:55:05;16.30;99.90
790;DHT22;378;48.844;9.156;2023-08-01T06:57:32;16.30;99.90
790;DHT22;378;48.844;9.156;2023-08-01T06:59:59;16.30;99.90
790;DHT22;378;48.844;9.156;2023-08-01T07:02:27;16.30;99.90
790;DHT22;378;48.844;9.156;2023-08-01T07:04:54;16.30;99.90
790;DHT22;378;48.844;9.156;2023-08-01T07:07:21;16.30;99.90
790;DHT22;378;48.844;9.156;2023-08-01T07:09:47;16.40;99.90
790;DHT22;378;48.844;9.156;2023-08-01T07:12:14;16.30;99.90
790;DHT22;378;48.844;9.156;2023-08-01T07:14:41;16.30;99.90
790;DHT22;378;48.844;9.156;2023-08-01T07:17:08;16.20;99.90
790;DHT22;378;48.844;9.156;2023-08-01T07:19:36;16.20;99.90
790;DHT22;378;48.844;9.156;2023-08-01T07:22:03;16.10;99.90
790;DHT22;378;48.844;9.156;2023-08-01T07:24:30;16.00;99.90
790;DHT22;378;48.844;9.156;2023-08-01T07:26:57;16.00;99.90
790;DHT22;378;48.844;9.156;2023-08-01T07:29:23;16.00;99.90
790;DHT22;378;48.844;9.156;2023-08-01T07:31:50;15.90;99.90
790;DHT22;378;48.844;9.156;2023-08-01T07:34:17;15.80;99.90
790;DHT22;378;48.844;9.156;2023-08-01T07:36:45;15.70;99.90
790;DHT22;378;48.844;9.156;2023-08-01T07:39:14;15.70;99.90
790;DHT22;378;48.844;9.156;2023-08-01T07:41:40;15.70;99.90
790;DHT22;378;48.844;9.156;2023-08-01T07:44:07;15.70;99.90
790;DHT22;378;48.844;9.156;2023-08-01T07:46:34;15.70;99.90
790;DHT22;378;48.844;9.156;2023-08-01T07:49:01;15.70;99.90
790;DHT22;378;48.844;9.156;2023-08-01T07:51:28;15.70;99.90
790;DHT22;378;48.844;9.156;2023-08-01T07:53:57;15.70;99.90
790;DHT22;378;48.844;9.156;2023-08-01T07:56:24;15.70;99.90
790;DHT22;378;48.844;9.156;2023-08-01T07:58:51;15.70;99.90
790;DHT22;378;48.844;9.156;2023-08-01T08:01:17;15.80;99.90
790;DHT22;378;48.844;9.156;2023-08-01T08:03:44;15.80;99.90
790;DHT22;378;48.844;9.156;2023-08-01T08:06:11;15.90;99.90
790;DHT22;378;48.844;9.156;2023-08-01T08:08:38;15.90;99.90
790;DHT22;378;48.844;9.156;2023-08-01T08:11:06;16.00;99.90
790;DHT22;378;48.844;9.156;2023-08-01T08:13:33;16.00;99.90
790;DHT22;378;48.844;9.156;2023-08-01T08:16:00;16.00;99.90
790;DHT22;378;48.844;9.156;2023-08-01T08:18:26;16.00;99.90
790;DHT22;378;48.844;9.156;2023-08-01T08:20:53;16.00;99.90
790;DHT22;378;48.844;9.156;2023-08-01T08:23:20;16.00;99.90
790;DHT22;378;48.844;9.156;2023-08-01T08:25:47;16.00;99.90
790;DHT22;378;48.844;9.156;2023-08-01T08:28:27;16.10;99.90
790;DHT22;378;48.844;9.156;2023-08-01T08:30:54;16.10;99.90
790;DHT22;378;48.844;9.156;2023-08-01T08:33:22;16.10;99.90
790;DHT22;378;48.844;9.156;2023-08-01T08:35:49;16.10;99.90
790;DHT22;378;48.844;9.156;2023-08-01T08:38:17;16.10;99.90
790;DHT22;378;48.844;9.156;2023-08-01T08:40:55;16.20;99.90
790;DHT22;378;48.844;9.156;2023-08-01T08:43:26;16.30;99.90
790;DHT22;378;48.844;9.156;2023-08-01T08:45:56;16.30;99.90
790;DHT22;378;48.844;9.156;2023-08-01T08:48:26;16.30;99.90
790;DHT22;378;48.844;9.156;2023-08-01T08:50:53;16.40;99.90
790;DHT22;378;48.844;9.156;2023-08-01T08:53:21;16.40;99.90
790;DHT22;378;48.844;9.156;2023-08-01T08:55:48;16.50;99.90
790;DHT22;378;48.844;9.156;2023-08-01T08:58:15;16.50;99.90
790;DHT22;378;48.844;9.156;2023-08-01T09:00:44;16.60;99.90
790;DHT22;378;48.844;9.156;2023-08-01T09:03:11;16.60;99.90
790;DHT22;378;48.844;9.156;2023-08-01T09:05:44;16.60;99.90
790;DHT22;378;48.844;9.156;2023-08-01T09:08:21;16.70;99.90
790;DHT22;378;48.844;9.156;2023-08-01T09:10:50;16.70;99.90
790;DHT22;378;48.844;9.156;2023-08-01T09:13:17;16.60;99.90
790;DHT22;378;48.844;9.156;2023-08-01T09:15:46;16.60;99.90
790;DHT22;378;48.844;9.156;2023-08-01T09:18:14;16.60;99.90
790;DHT22;378;48.844;9.156;2023-08-01T09:20:42;16.60;99.90
790;DHT22;378;48.844;9.156;2023-08-01T09:23:10;16.60;99.90
790;DHT22;378;48.844;9.156;2023-08-01T09:25:38;16.60;99.90
790;DHT22;378;48.844;9.156;2023-08-01T09:28:15;16.60;99.90
790;DHT22;378;48.844;9.156;2023-08-01T09:30:48;16.70;99.90
790;DHT22;378;48.844;9.156;2023-08-01T09:33:15;16.70;99.90
790;DHT22;378;48.844;9.156;2023-08-01T09:35:45;16.70;99.90
790;DHT22;378;48.844;9.156;2023-08-01T09:38:13;16.60;99.90
790;DHT22;378;48.844;9.156;2023-08-01T09:40:40;16.70;99.90
790;DHT22;378;48.844;9.156;2023-08-01T09:43:08;16.70;99.90
790;DHT22;378;48.844;9.156;2023-08-01T09:45:35;16.80;99.90
790;DHT22;378;48.844;9.156;2023-08-01T09:48:03;16.90;99.90
790;DHT22;378;48.844;9.156;2023-08-01T09:50:31;16.90;99.90
790;DHT22;378;48.844;9.156;2023-08-01T09:53:07;16.90;99.90
790;DHT22;378;48.844;9.156;2023-08-01T09:55:35;16.90;99.90
790;DHT22;378;48.844;9.156;2023-08-01T09:58:02;17.00;99.90
790;DHT22;378;48.844;9.156;2023-08-01T10:00:30;17.10;99.90
790;DHT22;378;48.844;9.156;2023-08-01T10:02:58;17.10;99.90
790;DHT22;378;48.844;9.156;2023-08-01T10:05:29;17.20;99.90
790;DHT22;378;48.844;9.156;2023-08-01T10:07:59;17.20;99.90
790;DHT22;378;48.844;9.156;2023-08-01T10:10:26;17.20;99.90
790;DHT22;378;48.844;9.156;2023-08-01T10:12:54;17.30;99.90
790;DHT22;378;48.844;9.156;2023-08-01T10:15:23;17.40;99.90
790;DHT22;378;48.844;9.156;2023-08-01T10:17:50;17.40;99.90
790;DHT22;378;48.844;9.156;2023-08-01T10:20:18;17.30;99.90
790;DHT22;378;48.844;9.156;2023-08-01T10:22:48;17.40;99.90
790;DHT22;378;48.844;9.156;2023-08-01T10:25:16;17.30;99.90
790;DHT22;378;48.844;9.156;2023-08-01T10:27:43;17.30;99.90
790;DHT22;378;48.844;9.156;2023-08-01T10:30:10;17.30;99.90
790;DHT22;378;48.844;9.156;2023-08-01T10:32:39;17.30;99.90
790;DHT22;378;48.844;9.156;2023-08-01T10:35:06;17.20;99.90
790;DHT22;378;48.844;9.156;2023-08-01T10:37:40;17.20;99.90
790;DHT22;378;48.844;9.156;2023-08-01T10:40:09;17.10;99.90
790;DHT22;378;48.844;9.156;2023-08-01T10:42:39;17.10;99.90
790;DHT22;378;48.844;9.156;2023-08-01T10:45:07;17.10;99.90
790;DHT22;378;48.844;9.156;2023-08-01T10:47:34;17.10;99.90
790;DHT22;378;48.844;9.156;2023-08-01T10:50:13;17.20;99.90
790;DHT22;378;48.844;9.156;2023-08-01T10:52:40;17.20;99.90
790;DHT22;378;48.844;9.156;2023-08-01T10:55:09;17.20;99.90
790;DHT22;378;48.844;9.156;2023-08-01T10:57:38;17.10;99.90
790;DHT22;378;48.844;9.156;2023-08-01T11:00:06;17.20;99.90
790;DHT22;378;48.844;9.156;2023-08-01T11:02:35;17.10;99.90
790;DHT22;378;48.844;9.156;2023-08-01T11:05:03;17.20;99.90
790;DHT22;378;48.844;9.156;2023-08-01T11:07:31;17.30;99.90
790;DHT22;378;48.844;9.156;2023-08-01T11:10:05;17.40;99.90
790;DHT22;378;48.844;9.156;2023-08-01T11:12:36;17.40;99.90
790;DHT22;378;48.844;9.156;2023-08-01T11:15:05;17.50;99.90
790;DHT22;378;48.844;9.156;2023-08-01T11:17:34;17.50;99.90
790;DHT22;378;48.844;9.156;2023-08-01T11:20:02;17.40;99.90
790;DHT22;378;48.844;9.156;2023-08-01T11:22:30;17.40;99.90
790;DHT22;378;48.844;9.156;2023-08-01T11:24:57;17.50;99.90
790;DHT22;378;48.844;9.156;2023-08-01T11:27:24;17.70;99.90
790;DHT22;378;48.844;9.156;2023-08-01T11:29:52;17.80;99.90
790;DHT22;378;48.844;9.156;2023-08-01T11:32:19;18.00;99.90
790;DHT22;378;48.844;9.156;2023-08-01T11:34:47;18.10;99.90
790;DHT22;378;48.844;9.156;2023-08-01T11:37:15;18.20;99.90
790;DHT22;378;48.844;9.156;2023-08-01T11:39:42;18.20;99.90
790;DHT22;378;48.844;9.156;2023-08-01T11:42:15;18.30;99.90
790;DHT22;378;48.844;9.156;2023-08-01T11:44:42;18.30;99.90
790;DHT22;378;48.844;9.156;2023-08-01T11:47:12;18.20;99.90
790;DHT22;378;48.844;9.156;2023-08-01T11:49:44;18.30;99.90
790;DHT22;378;48.844;9.156;2023-08-01T11:52:22;18.40;99.90
790;DHT22;378;48.844;9.156;2023-08-01T11:54:49;18.40;99.90
790;DHT22;378;48.844;9.156;2023-08-01T11:57:16;18.50;99.90
790;DHT22;378;48.844;9.156;2023-08-01T11:59:46;18.50;99.90
790;DHT22;378;48.844;9.156;2023-08-01T12:02:22;18.60;99.90
790;DHT22;378;48.844;9.156;2023-08-01T12:04:49;18.70;99.90
790;DHT22;378;48.844;9.156;2023-08-01T12:07:16;18.90;99.90
790;DHT22;378;48.844;9.156;2023-08-01T12:09:43;19.10;99.90
790;DHT22;378;48.844;9.156;2023-08-01T12:12:10;19.20;99.90
790;DHT22;378;48.844;9.156;2023-08-01T12:14:40;19.30;99.90
790;DHT22;378;48.844;9.156;2023-08-01T12:17:06;19.20;99.90
790;DHT22;378;48.844;9.156;2023-08-01T12:19:35;19.40;99.90
790;DHT22;378;48.844;9.156;2023-08-01T12:22:02;19.40;99.90
790;DHT22;378;48.844;9.156;2023-08-01T12:24:28;19.50;99.90
790;DHT22;378;48.844;9.156;2023-08-01T12:26:55;19.30;99.90
790;DHT22;378;48.844;9.156;2023-08-01T12:29:22;19.10;99.90
790;DHT22;378;48.844;9.156;2023-08-01T12:31:49;19.10;99.90
790;DHT22;378;48.844;9.156;2023-08-01T12:34:16;19.10;99.90
790;DHT22;378;48.844;9.156;2023-08-01T12:36:44;19.20;99.90
790;DHT22;378;48.844;9.156;2023-08-01T12:39:11;19.40;99.90
790;DHT22;378;48.844;9.156;2023-08-01T12:41:38;19.70;99.90
790;DHT22;378;48.844;9.156;2023-08-01T12:44:05;19.90;99.90
790;DHT22;378;48.844;9.156;2023-08-01T12:46:32;20.20;99.90
790;DHT22;378;48.844;9.156;2023-08-01T12:48:58;20.40;99.90
790;DHT22;378;48.844;9.156;2023-08-01T12:51:25;20.60;99.90
790;DHT22;378;48.844;9.156;2023-08-01T12:53:53;20.60;99.90
790;DHT22;378;48.844;9.156;2023-08-01T12:56:20;20.70;99.90
790;DHT22;378;48.844;9.156;2023-08-01T12:58:47;20.60;99.90
790;DHT22;378;48.844;9.156;2023-08-01T13:01:14;20.70;99.90
790;DHT22;378;48.844;9.156;2023-08-01T13:03:41;20.80;99.90
790;DHT22;378;48.844;9.156;2023-08-01T13:06:10;20.90;99.90
790;DHT22;378;48.844;9.156;2023-08-01T13:08:38;21.00;99.90
790;DHT22;378;48.844;9.156;2023-08-01T13:11:11;21.20;99.90
790;DHT22;378;48.844;9.156;2023-08-01T13:13:40;21.30;99.90
790;DHT22;378;48.844;9.156;2023-08-01T13:16:07;21.40;99.90
790;DHT22;378;48.844;9.156;2023-08-01T13:18:34;21.40;99.90
790;DHT22;378;48.844;9.156;2023-08-01T13:21:01;21.30;99.90
790;DHT22;378;48.844;9.156;2023-08-01T13:23:28;21.30;99.90
790;DHT22;378;48.844;9.156;2023-08-01T13:25:55;21.40;99.90
790;DHT22;378;48.844;9.156;2023-08-01T13:28:25;21.40;99.90
790;DHT22;378;48.844;9.156;2023-08-01T13:30:52;21.40;99.90
790;DHT22;378;48.844;9.156;2023-08-01T13:33:19;21.50;99.90
790;DHT22;378;48.844;9.156;2023-08-01T13:35:45;21.60;99.90
790;DHT22;378;48.844;9.156;2023-08-01T13:38:12;21.70;99.90
790;DHT22;378;48.844;9.156;2023-08-01T13:40:39;21.60;99.90
790;DHT22;378;48.844;9.156;2023-08-01T13:43:06;21.70;99.90
790;DHT22;378;48.844;9.156;2023-08-01T13:45:34;21.70;99.90
790;DHT22;378;48.844;9.156;2023-08-01T13:48:01;21.80;99.90
790;DHT22;378;48.844;9.156;2023-08-01T13:50:29;21.90;99.90
790;DHT22;378;48.844;9.156;2023-08-01T13:52:56;22.10;99.90
790;DHT22;378;48.844;9.156;2023-08-01T13:55:23;22.20;99.90
790;DHT22;378;48.844;9.156;2023-08-01T13:57:50;22.20;99.90
790;DHT22;378;48.844;9.156;2023-08-01T14:00:17;22.20;99.90
790;DHT22;378;48.844;9.156;2023-08-01T14:02:46;22.30;99.90
790;DHT22;378;48.844;9.156;2023-08-01T14:05:15;22.50;99.90
790;DHT22;378;48.844;9.156;2023-08-01T14:07:42;22.50;99.90
790;DHT22;378;48.844;9.156;2023-08-01T14:10:09;22.50;99.90
790;DHT22;378;48.844;9.156;2023-08-01T14:12:36;22.40;99.90
790;DHT22;378;48.844;9.156;2023-08-01T14:15:04;22.40;99.90
790;DHT22;378;48.844;9.156;2023-08-01T14:17:31;22.50;99.90
790;DHT22;378;48.844;9.156;2023-08-01T14:19:59;22.60;99.90
790;DHT22;378;48.844;9.156;2023-08-01T14:22:26;22.70;99.90
790;DHT22;378;48.844;9.156;2023-08-01T14:24:53;22.70;99.90
790;DHT22;378;48.844;9.156;2023-08-01T14:27:19;22.90;99.90
790;DHT22;378;48.844;9.156;2023-08-01T14:29:46;23.00;99.90
790;DHT22;378;48.844;9.156;2023-08-01T14:32:14;23.00;99.90
790;DHT22;378;48.844;9.156;2023-08-01T14:34:40;23.00;99.90
790;DHT22;378;48.844;9.156;2023-08-01T14:37:08;23.00;99.90
790;DHT22;378;48.844;9.156;2023-08-01T14:39:35;23.00;99.90
790;DHT22;378;48.844;9.156;2023-08-01T14:42:02;23.00;99.90
790;DHT22;378;48.844;9.156;2023-08-01T14:44:29;23.10;99.90
790;DHT22;378;48.844;9.156;2023-08-01T14:46:56;23.10;99.90
790;DHT22;378;48.844;9.156;2023-08-01T14:49:23;23.10;99.90
790;DHT22;378;48.844;9.156;2023-08-01T14:51:53;23.20;99.90
790;DHT22;378;48.844;9.156;2023-08-01T14:54:21;23.30;99.90
790;DHT22;378;48.844;9.156;2023-08-01T14:56:48;23.60;99.90
790;DHT22;378;48.844;9.156;2023-08-01T14:59:14;24.00;99.90
790;DHT22;378;48.844;9.156;2023-08-01T15:01:41;24.30;99.90
790;DHT22;378;48.844;9.156;2023-08-01T15:04:08;24.80;99.90
790;DHT22;378;48.844;9.156;2023-08-01T15:06:35;25.70;99.90
790;DHT22;378;48.844;9.156;2023-08-01T15:09:02;26.70;99.90
790;DHT22;378;48.844;9.156;2023-08-01T15:11:30;28.10;99.90
790;DHT22;378;48.844;9.156;2023-08-01T15:13:57;29.30;99.90
790;DHT22;378;48.844;9.156;2023-08-01T15:16:24;29.40;99.90
790;DHT22;378;48.844;9.156;2023-08-01T15:18:51;29.30;99.90
790;DHT22;378;48.844;9.156;2023-08-01T15:21:18;28.70;99.90
790;DHT22;378;48.844;9.156;2023-08-01T15:23:45;27.10;99.90
790;DHT22;378;48.844;9.156;2023-08-01T15:26:12;25.90;99.90
790;DHT22;378;48.844;9.156;2023-08-01T15:28:40;25.10;99.90
790;DHT22;378;48.844;9.156;2023-08-01T15:31:09;24.40;99.90
790;DHT22;378;48.844;9.156;2023-08-01T15:33:37;24.10;99.90
790;DHT22;378;48.844;9.156;2023-08-01T15:36:05;23.80;99.90
790;DHT22;378;48.844;9.156;2023-08-01T15:38:34;23.70;99.90
790;DHT22;378;48.844;9.156;2023-08-01T15:41:01;23.60;99.90
790;DHT22;378;48.844;9.156;2023-08-01T15:43:34;23.80;99.90
790;DHT22;378;48.844;9.156;2023-08-01T15:46:03;24.10;99.90
790;DHT22;378;48.844;9.156;2023-08-01T15:48:30;24.10;99.90
790;DHT22;378;48.844;9.156;2023-08-01T15:50:57;24.10;99.90
790;DHT22;378;48.844;9.156;2023-08-01T15:53:24;24.10;99.90
790;DHT22;378;48.844;9.156;2023-08-01T15:55:54;24.10;99.90
790;DHT22;378;48.844;9.156;2023-08-01T15:58:21;24.20;99.90
790;DHT22;378;48.844;9.156;2023-08-01T16:00:48;24.30;99.90
790;DHT22;378;48.844;9.156;2023-08-01T16:03:17;24.50;99.90
790;DHT22;378;48.844;9.156;2023-08-01T16:05:44;24.20;99.90
790;DHT22;378;48.844;9.156;2023-08-01T16:08:11;23.80;99.90
790;DHT22;378;48.844;9.156;2023-08-01T16:10:39;23.50;99.90
790;DHT22;378;48.844;9.156;2023-08-01T16:13:07;23.10;99.90
790;DHT22;378;48.844;9.156;2023-08-01T16:15:34;22.90;99.90
790;DHT22;378;48.844;9.156;2023-08-01T16:18:01;22.90;99.90
790;DHT22;378;48.844;9.156;2023-08-01T16:20:29;22.80;99.90
790;DHT22;378;48.844;9.156;2023-08-01T16:22:56;22.70;99.90
790;DHT22;378;48.844;9.156;2023-08-01T16:25:23;22.60;99.90
790;DHT22;378;48.844;9.156;2023-08-01T16:27:50;22.40;99.90
790;DHT22;378;48.844;9.156;2023-08-01T16:30:18;22.10;99.90
790;DHT22;378;48.844;9.156;2023-08-01T16:32:45;22.00;99.90
790;DHT22;378;48.844;9.156;2023-08-01T16:35:12;22.10;99.90
790;DHT22;378;48.844;9.156;2023-08-01T16:37:41;22.20;99.90
790;DHT22;378;48.844;9.156;2023-08-01T16:40:08;22.30;99.90
790;DHT22;378;48.844;9.156;2023-08-01T16:42:36;22.40;99.90
790;DHT22;378;48.844;9.156;2023-08-01T16:45:03;22.30;99.90
790;DHT22;378;48.844;9.156;2023-08-01T16:47:31;22.30;99.90
790;DHT22;378;48.844;9.156;2023-08-01T16:49:59;22.30;99.90
790;DHT22;378;48.844;9.156;2023-08-01T16:52:26;22.30;99.90
790;DHT22;378;48.844;9.156;2023-08-01T16:54:54;22.30;99.90
790;DHT22;378;48.844;9.156;2023-08-01T16:57:21;22.20;99.90
790;DHT22;378;48.844;9.156;2023-08-01T16:59:48;22.30;99.90